Time;durP1;ratioP1;P1;durP2;ratioP2;P2;SDS_P1;SDS_P2;PMS_P1;PMS_P2;Temp;Humidity;BMP_temperature;BMP_pressure;BME280_temperature;BME280_humidity;BME280_pressure;Samples;Min_cycle;Max_cycle;Signal;HPM_P1;HPM_P2
2022/04/26 03:37:23;;;;;;;2.10;1.05;;;;;;;-140.79;100.00;63287.88;5023245;28;20136;-51
2022/04/26 03:39:49;;;;;;;4.07;1.20;;;;;;;-140.79;100.00;63287.88;5016044;28;20147;-54
2022/04/26 03:42:14;;;;;;;3.75;1.10;;;;;;;-140.79;100.00;63287.88;5003675;28;20044;-53
2022/04/26 03:44:40;;;;;;;2.10;1.00;;;;;;;-140.79;100.00;63287.88;5013903;28;20022;-54
2022/04/26 03:47:05;;;;;;;6.57;1.77;;;;;;;-140.79;100.00;63287.88;5036841;28;20159;-54
2022/04/26 03:49:31;;;;;;;4.40;0.88;;;;;;;-140.79;100.00;63287.88;5044217;28;20071;-54
2022/04/26 03:51:56;;;;;;;2.67;0.90;;;;;;;-140.79;100.00;63287.88;5043138;28;20013;-54
2022/04/26 03:54:22;;;;;;;2.80;1.00;;;;;;;-140.79;100.00;63287.88;5044050;28;20029;-54
2022/04/26 03:56:47;;;;;;;4.10;1.15;;;;;;;-140.79;100.00;63287.88;5043844;28;20029;-55
2022/04/26 03:59:13;;;;;;;2.08;1.05;;;;;;;-140.79;100.00;63287.88;5025620;28;20570;-52
2022/04/26 04:01:39;;;;;;;3.42;0.90;;;;;;;-140.79;100.00;63287.88;5022678;28;20047;-55
2022/04/26 04:04:04;;;;;;;4.50;1.30;;;;;;;-140.79;100.00;63287.88;5024701;28;20025;-56
2022/04/26 04:06:30;;;;;;;2.00;1.08;;;;;;;-140.79;100.00;63287.88;5024036;28;20516;-54
2022/04/26 04:08:55;;;;;;;2.03;0.95;;;;;;;-140.79;100.00;63287.88;5022266;28;20056;-55
2022/04/26 04:11:21;;;;;;;2.30;1.00;;;;;;;-140.79;100.00;63287.88;5021010;28;20034;-55
2022/04/26 04:13:46;;;;;;;3.50;1.23;;;;;;;-140.79;100.00;63287.88;5022643;28;20033;-54
2022/04/26 04:16:12;;;;;;;2.38;0.93;;;;;;;-140.79;100.00;63287.88;5003131;28;20543;-54
2022/04/26 04:21:21;;;;;;;3.00;1.27;;;;;;;-140.79;100.00;63287.88;5023154;28;20056;-52
2022/04/26 04:23:46;;;;;;;3.95;1.08;;;;;;;-140.79;100.00;63287.88;5022987;28;20476;-55
2022/04/26 04:26:12;;;;;;;4.03;1.30;;;;;;;-140.79;100.00;63287.88;5022211;28;20816;-54
2022/04/26 04:28:38;;;;;;;1.98;1.00;;;;;;;-140.79;100.00;63287.88;5023018;28;20576;-55
2022/04/26 04:31:04;;;;;;;2.72;1.08;;;;;;;-140.79;100.00;63287.88;5018558;28;20059;-52
2022/04/26 04:33:29;;;;;;;3.83;1.52;;;;;;;-140.79;100.00;63287.88;5022289;28;20052;-54
2022/04/26 04:35:55;;;;;;;4.10;1.30;;;;;;;-140.79;100.00;63287.88;5004700;28;20397;-54
2022/04/26 04:38:20;;;;;;;3.35;1.25;;;;;;;-140.79;100.00;63287.88;5019185;28;20018;-54
2022/04/26 04:40:46;;;;;;;3.72;1.20;;;;;;;-140.79;100.00;63287.88;5023116;28;20128;-53
2022/04/26 04:43:11;;;;;;;3.50;1.25;;;;;;;-140.79;100.00;63287.88;5022472;28;20037;-56
2022/04/26 04:45:38;;;;;;;3.17;1.23;;;;;;;-140.79;100.00;63287.88;5005574;28;20036;-56
2022/04/26 04:48:05;;;;;;;3.20;1.30;;;;;;;-140.79;100.00;63287.88;5024935;28;20029;-54
2022/04/26 04:50:32;;;;;;;5.50;1.50;;;;;;;-140.79;100.00;63287.88;5026789;28;20048;-55
2022/04/26 04:52:57;;;;;;;5.28;1.58;;;;;;;-140.79;100.00;63287.88;5005883;28;20497;-55
2022/04/26 04:55:23;;;;;;;4.78;1.45;;;;;;;-140.79;100.00;63287.88;5023084;28;20033;-56
2022/04/26 04:57:48;;;;;;;6.18;2.10;;;;;;;-140.79;100.00;63287.88;5015683;28;20444;-56
2022/04/26 05:00:14;;;;;;;5.47;1.55;;;;;;;-140.79;100.00;63287.88;5026315;28;20045;-55
2022/04/26 05:02:39;;;;;;;4.72;1.50;;;;;;;-140.79;100.00;63287.88;5024589;28;20143;-55
2022/04/26 05:05:05;;;;;;;4.22;2.05;;;;;;;-140.79;100.00;63287.88;5026198;28;20037;-59
2022/04/26 05:07:30;;;;;;;6.47;1.35;;;;;;;-140.79;100.00;63287.88;5026724;28;20033;-55
2022/04/26 05:09:56;;;;;;;4.05;1.35;;;;;;;-140.79;100.00;63287.88;5026307;28;20038;-52
2022/04/26 05:12:21;;;;;;;4.88;1.50;;;;;;;-140.79;100.00;63287.88;5022897;28;20045;-55
2022/04/26 05:14:47;;;;;;;4.75;1.40;;;;;;;-140.79;100.00;63287.88;5023928;28;20036;-56
2022/04/26 05:17:12;;;;;;;3.85;1.50;;;;;;;-140.79;100.00;63287.88;5023956;28;20073;-55
2022/04/26 05:19:38;;;;;;;6.03;1.27;;;;;;;-140.79;100.00;63287.88;5023611;28;20033;-55
2022/04/26 05:22:10;;;;;;;7.97;1.50;;;;;;;-140.79;100.00;63287.88;5024042;28;20052;-55
2022/04/26 05:24:54;;;;;;;5.65;1.50;;;;;;;-140.79;100.00;63287.88;5023900;28;20033;-55
2022/04/26 05:27:29;;;;;;;3.90;1.23;;;;;;;-140.79;100.00;63287.88;5024640;28;20033;-55
2022/04/26 05:29:55;;;;;;;4.88;1.35;;;;;;;-140.79;100.00;63287.88;5008085;28;20029;-54
2022/04/26 05:32:24;;;;;;;9.20;1.45;;;;;;;-140.79;100.00;63287.88;5025200;28;20823;-54
2022/04/26 05:34:57;;;;;;;4.82;1.50;;;;;;;-140.79;100.00;63287.88;5026493;28;20034;-51
2022/04/26 05:37:23;;;;;;;5.95;1.75;;;;;;;-140.79;100.00;63287.88;5025876;28;20041;-55
2022/04/26 05:39:48;;;;;;;4.47;1.33;;;;;;;-140.79;100.00;63287.88;5028119;28;20581;-54
2022/04/26 05:42:14;;;;;;;5.45;1.40;;;;;;;-140.79;100.00;63287.88;5039885;28;20459;-54
2022/04/26 05:44:39;;;;;;;5.75;1.30;;;;;;;-140.79;100.00;63287.88;5025960;28;20052;-55
2022/04/26 05:47:08;;;;;;;4.47;1.33;;;;;;;-140.79;100.00;63287.88;5025492;28;20103;-54
2022/04/26 05:49:34;;;;;;;4.85;1.42;;;;;;;-140.79;100.00;63287.88;5025993;28;20029;-55
2022/04/26 05:52:00;;;;;;;5.60;1.33;;;;;;;-140.79;100.00;63287.88;5026538;28;20748;-55
2022/04/26 05:54:25;;;;;;;4.15;1.13;;;;;;;-140.79;100.00;63287.88;5007951;28;20527;-55
2022/04/26 05:56:54;;;;;;;2.75;0.95;;;;;;;-140.79;100.00;63287.88;5026134;28;20037;-54
2022/04/26 05:59:20;;;;;;;6.80;1.35;;;;;;;-140.79;100.00;63287.88;5025759;28;20041;-55
2022/04/26 06:01:45;;;;;;;5.13;1.45;;;;;;;-140.79;100.00;63287.88;5008821;28;20102;-54
2022/04/26 06:04:11;;;;;;;4.47;1.05;;;;;;;-140.79;100.00;63287.88;5026239;28;20029;-54
2022/04/26 06:06:36;;;;;;;7.63;1.40;;;;;;;-140.79;100.00;63287.88;5026625;28;20021;-54
2022/04/26 06:09:03;;;;;;;5.63;1.45;;;;;;;-140.79;100.00;63287.88;5025966;28;20033;-54
2022/04/26 06:11:28;;;;;;;3.90;1.80;;;;;;;-140.79;100.00;63287.88;4992062;28;20030;-54
2022/04/26 06:13:53;;;;;;;6.28;1.55;;;;;;;-140.79;100.00;63287.88;5025790;28;20017;-53
2022/04/26 06:16:19;;;;;;;4.18;1.95;;;;;;;-140.79;100.00;63287.88;5025820;28;20029;-54
2022/04/26 06:18:44;;;;;;;6.78;2.33;;;;;;;-140.79;100.00;63287.88;5025665;28;20029;-51
2022/04/26 06:21:10;;;;;;;5.00;1.73;;;;;;;-140.79;100.00;63287.88;5025772;28;20078;-54
2022/04/26 06:23:35;;;;;;;4.50;1.30;;;;;;;-140.79;100.00;63287.88;5025413;28;20033;-52
2022/04/26 06:26:01;;;;;;;4.35;1.60;;;;;;;-140.79;100.00;63287.88;5007897;28;20029;-55
2022/04/26 06:28:27;;;;;;;3.95;1.30;;;;;;;-140.79;100.00;63287.88;5026042;28;20060;-55
2022/04/26 06:30:54;;;;;;;4.43;1.38;;;;;;;-140.79;100.00;63287.88;5025219;28;20052;-55
2022/04/26 06:33:19;;;;;;;4.03;1.42;;;;;;;-140.79;100.00;63287.88;5008470;28;20030;-55
2022/04/26 06:35:45;;;;;;;6.47;1.83;;;;;;;-140.79;100.00;63287.88;5024450;28;20111;-53
2022/04/26 06:38:10;;;;;;;4.65;1.33;;;;;;;-140.79;100.00;63287.88;5025482;28;20521;-55
2022/04/26 06:40:36;;;;;;;7.10;1.75;;;;;;;-140.79;100.00;63287.88;5025781;28;20037;-53
2022/04/26 06:43:01;;;;;;;3.25;1.30;;;;;;;-140.79;100.00;63287.88;5025129;28;20030;-56
2022/04/26 06:45:27;;;;;;;3.78;1.25;;;;;;;-140.79;100.00;63287.88;5025414;28;20021;-55
2022/04/26 06:47:54;;;;;;;3.75;1.00;;;;;;;-140.79;100.00;63287.88;5028769;28;20139;-55
2022/04/26 06:50:20;;;;;;;3.72;1.20;;;;;;;-140.79;100.00;63287.88;5027365;28;20365;-53
2022/04/26 06:52:46;;;;;;;2.45;1.00;;;;;;;-140.79;100.00;63287.88;5044758;28;20033;-55
2022/04/26 06:55:11;;;;;;;4.75;1.30;;;;;;;-140.79;100.00;63287.88;5031741;28;20025;-55
2022/04/26 06:57:37;;;;;;;3.28;1.05;;;;;;;-140.79;100.00;63287.88;5024121;28;20025;-54
2022/04/26 07:00:05;;;;;;;3.03;0.90;;;;;;;-140.79;100.00;63287.88;5023893;28;20033;-54
2022/04/26 07:02:30;;;;;;;2.67;1.10;;;;;;;-140.79;100.00;63287.88;5024592;28;20033;-53
2022/04/26 07:04:56;;;;;;;4.97;1.15;;;;;;;-140.79;100.00;63287.88;5025327;28;20354;-55
2022/04/26 07:07:22;;;;;;;3.38;1.10;;;;;;;-140.79;100.00;63287.88;5025193;28;20049;-52
2022/04/26 07:09:48;;;;;;;3.92;1.48;;;;;;;-140.79;100.00;63287.88;5025022;28;20037;-53
2022/04/26 07:12:13;;;;;;;4.22;1.05;;;;;;;-140.79;100.00;63287.88;5023202;28;20025;-52
2022/04/26 07:14:38;;;;;;;4.45;1.10;;;;;;;-140.79;100.00;63287.88;5025274;28;20496;-52
2022/04/26 07:17:04;;;;;;;2.22;0.90;;;;;;;-140.79;100.00;63287.88;5024917;28;20550;-52
2022/04/26 07:19:30;;;;;;;3.50;0.95;;;;;;;-140.79;100.00;63287.88;5024994;28;20416;-52
2022/04/26 07:21:55;;;;;;;4.10;0.90;;;;;;;-140.79;100.00;63287.88;5024886;28;20116;-55
2022/04/26 07:24:21;;;;;;;1.92;0.90;;;;;;;-140.79;100.00;63287.88;5024969;28;20492;-52
2022/04/26 07:26:46;;;;;;;3.58;1.75;;;;;;;-140.79;100.00;63287.88;5024856;28;20030;-54
2022/04/26 07:29:13;;;;;;;4.85;0.98;;;;;;;-140.79;100.00;63287.88;5006957;28;20729;-54
2022/04/26 07:31:39;;;;;;;2.92;0.95;;;;;;;-140.79;100.00;63287.88;5024012;28;20048;-53
2022/04/26 07:34:24;;;;;;;2.47;1.10;;;;;;;-140.79;100.00;63287.88;5024708;28;20022;-54
2022/04/26 07:36:50;;;;;;;3.17;1.00;;;;;;;-140.79;100.00;63287.88;5024213;28;20110;-54
2022/04/26 07:39:17;;;;;;;6.03;1.00;;;;;;;-140.79;100.00;63287.88;5024352;28;20488;-55
2022/04/26 07:41:46;;;;;;;4.38;1.00;;;;;;;-140.79;100.00;63287.88;5023726;28;20037;-55
2022/04/26 07:44:12;;;;;;;4.97;1.10;;;;;;;-140.79;100.00;63287.88;5024406;28;20037;-52
2022/04/26 07:46:37;;;;;;;2.95;0.90;;;;;;;-140.79;100.00;63287.88;5024332;28;20036;-55
2022/04/26 07:49:04;;;;;;;4.47;1.13;;;;;;;-140.79;100.00;63287.88;5006698;28;20108;-55
2022/04/26 07:51:30;;;;;;;3.80;1.08;;;;;;;-140.79;100.00;63287.88;5024533;28;20065;-52
2022/04/26 07:53:56;;;;;;;3.53;1.15;;;;;;;-140.79;100.00;63287.88;5023753;28;20416;-54
2022/04/26 07:56:21;;;;;;;5.82;0.90;;;;;;;-140.79;100.00;63287.88;5024070;28;20033;-52
2022/04/26 07:58:47;;;;;;;4.85;0.80;;;;;;;-140.79;100.00;63287.88;5019022;28;20044;-54
2022/04/26 08:01:12;;;;;;;6.75;1.10;;;;;;;-140.79;100.00;63287.88;5020873;28;20558;-56
2022/04/26 08:03:38;;;;;;;3.67;0.90;;;;;;;-140.79;100.00;63287.88;5120961;22;20065;-56
2022/04/26 08:06:03;;;;;;;4.63;1.60;;;;;;;-140.79;100.00;63287.88;5052686;28;20041;-53
2022/04/26 08:08:29;;;;;;;5.32;1.20;;;;;;;-140.79;100.00;63287.88;5050536;28;20044;-54
2022/04/26 08:10:54;;;;;;;5.97;1.00;;;;;;;-140.79;100.00;63287.88;5063351;28;20031;-55
2022/04/26 08:13:19;;;;;;;3.95;1.10;;;;;;;-140.79;100.00;63287.88;5048350;28;20017;-55
2022/04/26 08:15:45;;;;;;;2.92;1.23;;;;;;;-140.79;100.00;63287.88;5043423;28;20021;-54
2022/04/26 08:18:11;;;;;;;3.42;0.90;;;;;;;-140.79;100.00;63287.88;5043652;28;20021;-54
2022/04/26 08:20:37;;;;;;;3.28;0.93;;;;;;;-140.79;100.00;63287.88;5043655;28;20025;-55
2022/04/26 08:23:06;;;;;;;4.95;1.02;;;;;;;-140.79;100.00;63287.88;5043464;28;20041;-54
2022/04/26 08:28:17;;;;;;;4.07;0.95;;;;;;;-140.79;100.00;63287.88;5043466;28;20059;-53
2022/04/26 08:30:43;;;;;;;2.45;0.88;;;;;;;-140.79;100.00;63287.88;5043337;28;20538;-54
2022/04/26 08:33:08;;;;;;;3.85;1.15;;;;;;;-140.79;100.00;63287.88;5042198;28;20127;-54
2022/04/26 08:35:34;;;;;;;2.95;0.90;;;;;;;-140.79;100.00;63287.88;5043467;28;20043;-53
2022/04/26 08:37:59;;;;;;;6.57;1.35;;;;;;;-140.79;100.00;63287.88;5043361;28;20033;-54
2022/04/26 08:40:26;;;;;;;5.07;1.35;;;;;;;-140.79;100.00;63287.88;5063480;28;20025;-53
2022/04/26 08:42:52;;;;;;;2.75;1.25;;;;;;;-140.79;100.00;63287.88;5062683;28;20050;-55
2022/04/26 08:45:19;;;;;;;4.95;1.50;;;;;;;-140.79;100.00;63287.88;5045593;28;20037;-54
2022/04/26 08:53:20;;;;;;;7.25;1.88;;;;;;;-140.79;100.00;63287.88;5047973;28;20744;-55
2022/04/26 08:55:50;;;;;;;5.93;1.77;;;;;;;-140.79;100.00;63287.88;5063265;28;20107;-52
2022/04/26 08:58:18;;;;;;;6.65;1.70;;;;;;;-140.79;100.00;63287.88;5061436;28;20028;-53
2022/04/26 09:01:18;;;;;;;21.08;3.40;;;;;;;-140.79;100.00;63287.88;5046489;28;20025;-53
2022/04/26 09:03:55;;;;;;;;;;;;;;;-140.79;100.00;63287.88;5064501;28;20052;-54
2022/04/26 09:06:35;;;;;;;6.38;1.70;;;;;;;-140.79;100.00;63287.88;5062588;28;20402;-53
2022/04/26 09:09:07;;;;;;;7.13;1.77;;;;;;;-140.79;100.00;63287.88;5069531;28;20028;-55
2022/04/26 09:11:34;;;;;;;6.65;1.88;;;;;;;-140.79;100.00;63287.88;5082035;28;20097;-55
2022/04/26 09:14:03;;;;;;;6.88;1.90;;;;;;;-140.79;100.00;63287.88;5082297;28;20801;-55
2022/04/26 09:16:29;;;;;;;11.00;2.20;;;;;;;-140.79;100.00;63287.88;5060509;28;20016;-54
2022/04/26 09:18:59;;;;;;;8.88;2.00;;;;;;;-140.79;100.00;63287.88;5081395;28;20035;-54
2022/04/26 09:21:28;;;;;;;7.28;2.40;;;;;;;-140.79;100.00;63287.88;5070618;28;20036;-54
2022/04/26 09:24:04;;;;;;;6.93;1.70;;;;;;;-140.79;100.00;63287.88;5081622;28;20027;-54
2022/04/26 09:26:34;;;;;;;7.50;2.42;;;;;;;-140.79;100.00;63287.88;5081695;28;20031;-54
2022/04/26 09:28:59;;;;;;;6.47;2.10;;;;;;;-140.79;100.00;63287.88;5078624;28;20098;-54
2022/04/26 09:31:30;;;;;;;9.18;2.10;;;;;;;-140.79;100.00;63287.88;5081701;28;20523;-54
2022/04/26 09:34:04;;;;;;;6.45;1.92;;;;;;;-140.79;100.00;63287.88;5082039;28;20020;-52
2022/04/26 09:36:31;;;;;;;9.15;2.35;;;;;;;-140.79;100.00;63287.88;5082316;28;20032;-53
2022/04/26 09:39:00;;;;;;;7.35;2.25;;;;;;;-140.79;100.00;63287.88;5067710;28;20047;-53
2022/04/26 09:41:27;;;;;;;8.13;2.17;;;;;;;-140.79;100.00;63287.88;5086097;28;20034;-55
2022/04/26 09:44:03;;;;;;;5.10;1.80;;;;;;;-140.79;100.00;63287.88;5067669;28;20020;-56
2022/04/26 09:46:44;;;;;;;10.13;2.00;;;;;;;-140.79;100.00;63287.88;5085907;28;20589;-57
2022/04/26 09:49:11;;;;;;;8.68;2.20;;;;;;;-140.79;100.00;63287.88;5068612;28;20036;-62
2022/04/26 09:51:37;;;;;;;6.60;2.10;;;;;;;-140.79;100.00;63287.88;5086643;28;20024;-60
2022/04/26 09:54:03;;;;;;;7.13;2.10;;;;;;;-140.79;100.00;63287.88;5092292;28;20067;-57
2022/04/26 09:56:29;;;;;;;11.48;2.47;;;;;;;-140.79;100.00;63287.88;5095398;28;20062;-62
2022/04/26 09:58:56;;;;;;;8.00;2.10;;;;;;;-140.79;100.00;63287.88;5060122;28;20063;-62
2022/04/26 10:01:21;;;;;;;9.60;1.85;;;;;;;-140.79;100.00;63287.88;5052237;28;20062;-58
2022/04/26 10:03:47;;;;;;;6.63;2.25;;;;;;;-140.79;100.00;63287.88;5085529;28;20374;-62
2022/04/26 10:06:16;;;;;;;7.63;2.13;;;;;;;-140.79;100.00;63287.88;5082854;28;20076;-59
2022/04/26 10:08:41;;;;;;;7.95;2.13;;;;;;;-140.79;100.00;63287.88;5052408;28;20047;-61
2022/04/26 10:11:07;;;;;;;8.07;2.20;;;;;;;-140.79;100.00;63287.88;5048463;28;20029;-62
2022/04/26 10:13:39;;;;;;;12.27;2.83;;;;;;;-140.79;100.00;63287.88;5065284;28;20035;-61
2022/04/26 10:16:09;;;;;;;4.82;2.20;;;;;;;-140.79;100.00;63287.88;5066349;28;20028;-56
2022/04/26 10:18:37;;;;;;;;;;;;;;;-140.79;100.00;63287.88;5048662;28;20029;-57
2022/04/26 10:21:03;;;;;;;10.35;2.45;;;;;;;-140.79;100.00;63287.88;5065966;28;19939;-56
2022/04/26 10:23:29;;;;;;;9.35;2.10;;;;;;;-140.79;100.00;63287.88;5065145;28;20024;-56
2022/04/26 10:26:22;;;;;;;5.18;2.25;;;;;;;-140.79;100.00;63287.88;5047789;28;20029;-53
2022/04/26 10:28:50;;;;;;;9.98;2.25;;;;;;;-140.79;100.00;63287.88;5065749;28;20032;-54
2022/04/26 10:31:17;;;;;;;7.70;1.95;;;;;;;-140.79;100.00;63287.88;5065959;28;20024;-55
2022/04/26 10:33:44;;;;;;;5.20;1.90;;;;;;;-140.79;100.00;63287.88;5064856;28;20024;-55
2022/04/26 10:36:31;;;;;;;9.48;1.85;;;;;;;-140.79;100.00;63287.88;5065100;28;20020;-55
2022/04/26 10:39:05;;;;;;;8.98;1.92;;;;;;;-140.79;100.00;63287.88;5045451;28;20461;-55
2022/04/26 10:41:38;;;;;;;8.57;2.03;;;;;;;-140.79;100.00;63287.88;5045897;28;20027;-54
2022/04/26 10:44:13;;;;;;;5.40;1.67;;;;;;;-140.79;100.00;63287.88;5044943;28;20618;-53
2022/04/26 10:46:41;;;;;;;6.10;1.60;;;;;;;-140.79;100.00;63287.88;5045236;28;20021;-54
2022/04/26 10:49:38;;;;;;;5.22;1.65;;;;;;;-140.79;100.00;63287.88;5078515;28;20111;-59
2022/04/26 10:52:19;;;;;;;5.63;1.70;;;;;;;-140.79;100.00;63287.88;5078155;28;20032;-59
2022/04/26 10:55:01;;;;;;;7.43;1.85;;;;;;;-140.79;100.00;63287.88;5084767;28;20020;-59
2022/04/26 10:57:29;;;;;;;7.00;1.83;;;;;;;-140.79;100.00;63287.88;5072413;28;20063;-60
2022/04/26 10:59:56;;;;;;;7.07;1.70;;;;;;;-140.79;100.00;63287.88;5065628;28;20111;-59
2022/04/26 11:02:23;;;;;;;7.03;1.85;;;;;;;-140.79;100.00;63287.88;5066400;28;20040;-57
2022/04/26 11:04:56;;;;;;;7.57;2.25;;;;;;;-140.79;100.00;63287.88;5082594;28;20139;-58
2022/04/26 11:07:25;;;;;;;6.38;1.83;;;;;;;-140.79;100.00;63287.88;5082442;28;20103;-58
2022/04/26 11:09:51;;;;;;;6.30;1.55;;;;;;;-140.79;100.00;63287.88;5083109;28;20009;-57
2022/04/26 11:12:21;;;;;;;6.63;1.70;;;;;;;-140.79;100.00;63287.88;5083914;28;20064;-57
2022/04/26 11:14:47;;;;;;;6.43;1.55;;;;;;;-140.79;100.00;63287.88;5084517;28;20647;-57
2022/04/26 11:17:14;;;;;;;5.82;1.70;;;;;;;-140.79;100.00;63287.88;5083383;28;20032;-59
2022/04/26 11:19:46;;;;;;;5.72;1.52;;;;;;;-140.79;100.00;63287.88;5084222;28;20096;-55
2022/04/26 11:22:15;;;;;;;5.88;1.50;;;;;;;-140.79;100.00;63287.88;5067353;28;20133;-55
2022/04/26 11:30:09;;;;;;;6.47;1.67;;;;;;;-140.79;100.00;63287.88;5074174;28;20690;-56
2022/04/26 11:32:38;;;;;;;3.88;1.50;;;;;;;-140.79;100.00;63287.88;5058915;28;20106;-57
2022/04/26 11:35:04;;;;;;;5.53;1.70;;;;;;;-140.79;100.00;63287.88;5081022;28;20111;-56
2022/04/26 11:37:29;;;;;;;5.90;1.50;;;;;;;-140.79;100.00;63287.88;5079573;28;20115;-56
2022/04/26 11:39:55;;;;;;;8.73;1.45;;;;;;;-140.79;100.00;63287.88;5062849;28;20115;-56
2022/04/26 11:42:20;;;;;;;3.28;1.23;;;;;;;-140.79;100.00;63287.88;5061891;28;20036;-56
2022/04/26 11:45:05;;;;;;;7.68;1.52;;;;;;;-140.79;100.00;63287.88;5078786;28;20085;-56
2022/04/26 11:47:49;;;;;;;5.88;1.70;;;;;;;-140.79;100.00;63287.88;5081075;28;20121;-56
2022/04/26 11:50:22;;;;;;;5.68;1.60;;;;;;;-140.79;100.00;63287.88;5079880;28;20444;-56
2022/04/26 11:52:48;;;;;;;3.72;1.50;;;;;;;-140.79;100.00;63287.88;5082537;28;20038;-55
2022/04/26 11:55:23;;;;;;;4.80;1.40;;;;;;;-140.79;100.00;63287.88;5081050;28;20612;-56
2022/04/26 11:57:49;;;;;;;4.07;1.35;;;;;;;-140.79;100.00;63287.88;5081389;28;20490;-56
2022/04/26 12:00:19;;;;;;;5.25;1.50;;;;;;;-140.79;100.00;63287.88;5064121;28;20043;-56
2022/04/26 12:02:45;;;;;;;6.30;1.50;;;;;;;-140.79;100.00;63287.88;5080621;28;20040;-58
2022/04/26 12:05:11;;;;;;;5.53;1.48;;;;;;;-140.79;100.00;63287.88;5079574;28;20063;-55
2022/04/26 12:07:37;;;;;;;5.53;1.10;;;;;;;-140.79;100.00;63287.88;5063369;28;20040;-55
2022/04/26 12:10:02;;;;;;;6.38;1.40;;;;;;;-140.79;100.00;63287.88;5065484;28;20059;-57
2022/04/26 12:12:29;;;;;;;5.88;1.60;;;;;;;-140.79;100.00;63287.88;5083952;28;20265;-57
2022/04/26 12:14:55;;;;;;;5.40;1.40;;;;;;;-140.79;100.00;63287.88;5082433;28;20035;-56
2022/04/26 12:17:29;;;;;;;5.55;1.50;;;;;;;-140.79;100.00;63287.88;5082819;28;20031;-58
2022/04/26 12:19:55;;;;;;;6.47;1.33;;;;;;;-140.79;100.00;63287.88;5082245;28;20100;-58
2022/04/26 12:22:25;;;;;;;6.53;1.42;;;;;;;-140.79;100.00;63287.88;5065474;28;20119;-58
2022/04/26 12:24:51;;;;;;;4.30;1.20;;;;;;;-140.79;100.00;63287.88;5083161;28;20035;-58
2022/04/26 12:27:22;;;;;;;4.85;1.30;;;;;;;-140.79;100.00;63287.88;5082595;28;20043;-58
2022/04/26 12:29:53;;;;;;;5.45;1.27;;;;;;;-140.79;100.00;63287.88;5083616;28;20036;-56
2022/04/26 12:32:20;;;;;;;7.50;1.20;;;;;;;-140.79;100.00;63287.88;5082719;28;20028;-58
2022/04/26 12:34:47;;;;;;;4.80;1.25;;;;;;;-140.79;100.00;63287.88;5083429;28;20038;-58
2022/04/26 12:37:20;;;;;;;5.10;1.63;;;;;;;-140.79;100.00;63287.88;5082565;28;20169;-57
2022/04/26 12:39:48;;;;;;;5.05;1.23;;;;;;;-140.79;100.00;63287.88;5082355;28;20672;-56
2022/04/26 12:42:37;;;;;;;6.50;1.15;;;;;;;-140.79;100.00;63287.88;5080903;28;20065;-56
2022/04/26 12:45:06;;;;;;;4.90;1.20;;;;;;;-140.79;100.00;63287.88;5071181;28;20024;-57
2022/04/26 12:50:36;;;;;;;4.55;1.23;;;;;;;-140.79;100.00;63287.88;5071672;28;20027;-57
2022/04/26 12:53:08;;;;;;;5.00;1.40;;;;;;;-140.79;100.00;63287.88;5075618;28;20298;-56
2022/04/26 12:55:36;;;;;;;4.15;1.15;;;;;;;-140.79;100.00;63287.88;5072753;28;20040;-56
2022/04/26 12:58:06;;;;;;;4.72;1.08;;;;;;;-140.79;100.00;63287.88;5070576;28;20029;-57
2022/04/26 13:00:31;;;;;;;4.07;1.20;;;;;;;-140.79;100.00;63287.88;5081056;28;20024;-56
2022/04/26 13:03:00;;;;;;;4.55;1.30;;;;;;;-140.79;100.00;63287.88;5081485;28;20077;-55
2022/04/26 13:05:27;;;;;;;5.03;1.20;;;;;;;-140.79;100.00;63287.88;5060444;28;20036;-55
2022/04/26 13:07:52;;;;;;;6.10;1.08;;;;;;;-140.79;100.00;63287.88;5079368;28;20032;-54
2022/04/26 13:10:18;;;;;;;7.20;1.23;;;;;;;-140.79;100.00;63287.88;5085300;28;20054;-56
2022/04/26 13:12:44;;;;;;;3.83;0.95;;;;;;;-140.79;100.00;63287.88;5040767;28;20039;-56
2022/04/26 13:15:09;;;;;;;3.33;0.90;;;;;;;-140.79;100.00;63287.88;5083015;28;20032;-56
2022/04/26 13:17:38;;;;;;;6.10;1.10;;;;;;;-140.79;100.00;63287.88;5080056;28;20067;-56
2022/04/26 13:20:04;;;;;;;5.22;1.35;;;;;;;-140.79;100.00;63287.88;5084987;28;20024;-56
2022/04/26 13:22:30;;;;;;;3.95;1.00;;;;;;;-140.79;100.00;63287.88;5050630;28;20058;-56
2022/04/26 13:24:55;;;;;;;4.85;0.80;;;;;;;-140.79;100.00;63287.88;5079580;28;20093;-56
2022/04/26 13:27:41;;;;;;;3.35;0.90;;;;;;;-140.79;100.00;63287.88;5082385;28;20403;-56
2022/04/26 13:30:07;;;;;;;4.97;1.15;;;;;;;-140.79;100.00;63287.88;5082579;28;20026;-56
2022/04/26 13:32:33;;;;;;;2.63;0.80;;;;;;;-140.79;100.00;63287.88;5066687;28;20519;-57
2022/04/26 13:34:59;;;;;;;6.28;1.08;;;;;;;-140.79;100.00;63287.88;5082146;28;20031;-57
2022/04/26 13:37:25;;;;;;;5.30;0.73;;;;;;;-140.79;100.00;63287.88;5085546;28;20105;-57
2022/04/26 13:39:51;;;;;;;5.63;0.82;;;;;;;-140.79;100.00;63287.88;5082930;28;20028;-57
2022/04/26 13:42:17;;;;;;;4.30;1.20;;;;;;;-140.79;100.00;63287.88;5087266;28;20521;-57
2022/04/26 13:44:42;;;;;;;3.33;0.90;;;;;;;-140.79;100.00;63287.88;5087810;28;20045;-58
2022/04/26 13:47:08;;;;;;;3.08;0.80;;;;;;;-140.79;100.00;63287.88;5086631;28;20040;-57
2022/04/26 13:49:39;;;;;;;5.28;0.90;;;;;;;-140.79;100.00;63287.88;5084615;28;20030;-57
2022/04/26 13:52:05;;;;;;;2.15;0.77;;;;;;;-140.79;100.00;63287.88;5085443;28;20043;-56
2022/04/26 13:54:31;;;;;;;4.85;1.10;;;;;;;-140.79;100.00;63287.88;5084265;28;20044;-57
2022/04/26 13:56:56;;;;;;;3.05;0.80;;;;;;;-140.79;100.00;63287.88;5084141;28;20120;-56
2022/04/26 13:59:25;;;;;;;3.05;1.10;;;;;;;-140.79;100.00;63287.88;5084995;28;20603;-59
2022/04/26 14:01:51;;;;;;;2.08;0.90;;;;;;;-140.79;100.00;63287.88;5078069;28;20131;-57
2022/04/26 14:04:16;;;;;;;3.30;1.08;;;;;;;-140.79;100.00;63287.88;5085038;28;20036;-56
2022/04/26 14:06:43;;;;;;;5.03;0.90;;;;;;;-140.79;100.00;63287.88;5083205;28;20024;-57
2022/04/26 14:09:08;;;;;;;3.80;1.00;;;;;;;-140.79;100.00;63287.88;5084148;28;20227;-56
2022/04/26 14:11:34;;;;;;;3.65;1.00;;;;;;;-140.79;100.00;63287.88;5065371;28;20300;-56
2022/04/26 14:22:12;;;;;;;3.38;1.05;;;;;;;-140.79;100.00;63287.88;5084801;28;20039;-56
2022/04/26 14:24:38;;;;;;;4.60;1.10;;;;;;;-140.79;100.00;63287.88;5084324;28;20020;-56
2022/04/26 14:27:03;;;;;;;3.70;1.00;;;;;;;-140.79;100.00;63287.88;5067568;28;20110;-56
2022/04/26 14:29:29;;;;;;;3.67;1.00;;;;;;;-140.79;100.00;63287.88;5084675;28;20513;-56
2022/04/26 14:31:54;;;;;;;3.00;1.00;;;;;;;-140.79;100.00;63287.88;5085468;28;20165;-56
2022/04/26 14:34:20;;;;;;;4.35;1.00;;;;;;;-140.79;100.00;63287.88;5083809;28;20028;-56
2022/04/26 14:36:45;;;;;;;4.40;1.30;;;;;;;-140.79;100.00;63287.88;5082264;28;20035;-56
2022/04/26 14:39:12;;;;;;;5.50;1.55;;;;;;;-140.79;100.00;63287.88;5083076;28;20027;-56
2022/04/26 14:41:39;;;;;;;4.00;1.45;;;;;;;-140.79;100.00;63287.88;5082167;28;20027;-55
2022/04/26 14:44:06;;;;;;;3.60;1.10;;;;;;;-140.79;100.00;63287.88;5080593;28;20656;-57
2022/04/26 14:46:32;;;;;;;5.78;1.40;;;;;;;-140.79;100.00;63287.88;5082729;28;20418;-56
2022/04/26 14:48:58;;;;;;;5.13;1.17;;;;;;;-140.79;100.00;63287.88;5063976;28;20328;-57
2022/04/26 14:51:24;;;;;;;3.50;1.13;;;;;;;-140.79;100.00;63287.88;5082712;28;20513;-56
2022/04/26 14:53:49;;;;;;;5.00;0.98;;;;;;;-140.79;100.00;63287.88;5082221;28;20201;-56
2022/04/26 14:56:15;;;;;;;3.17;1.00;;;;;;;-140.79;100.00;63287.88;5061750;28;20103;-56
2022/04/26 14:58:41;;;;;;;2.58;1.20;;;;;;;-140.79;100.00;63287.88;5072878;28;20042;-57
2022/04/26 15:01:06;;;;;;;4.45;1.20;;;;;;;-140.79;100.00;63287.88;5078725;28;20059;-56
2022/04/26 15:03:32;;;;;;;2.80;0.90;;;;;;;-140.79;100.00;63287.88;5081826;28;20036;-55
2022/04/26 15:06:00;;;;;;;3.05;1.00;;;;;;;-140.79;100.00;63287.88;5082319;28;20530;-58
2022/04/26 15:11:10;;;;;;;4.30;1.15;;;;;;;-140.79;100.00;63287.88;5068822;28;20047;-56
2022/04/26 15:16:38;;;;;;;4.07;1.20;;;;;;;-140.79;100.00;63287.88;5083738;28;20458;-56
2022/04/26 15:19:11;;;;;;;3.35;1.13;;;;;;;-140.79;100.00;63287.88;5083701;28;20051;-56
2022/04/26 15:21:37;;;;;;;2.25;0.93;;;;;;;-140.79;100.00;63287.88;5065839;28;20071;-57